Boa Tyr — LAMU — position and weather

sailwx.info

Track history (hours):
 
Tides and Currents Weather Stations Pressure Air Temp Water Temp Dewpoint Dewpoint Depression Visibility Wind Speed Wind Dir Waves Ship Positions

Boa Tyr

Last reported at 2014-Oct-30 22:29 UTC. Time now 2014-Oct-31 04:51 UTC.
Position N 66°29' E 012°58'.

Length 33 m; draft 4.8 m.

Type: Tug. MMSI: 258395000.

Date/timePositionNaut miles runAvg speedWind from/ knotsBaromVisibWave heightAir tempDewpointWater temp
2014-Oct-30 22:29N 66°29' E 012°58'0 0.0
2014-Oct-30 18:25N 66°29' E 012°58'0 0.0
2014-Oct-30 17:31N 66°29' E 012°58'2 0.8
2014-Oct-30 14:33N 66°27' E 012°59'10 9.3
2014-Oct-30 13:32N 66°18' E 012°56'  
2014-Oct-24 09:19N 66°18' E 012°55'10 9.7
2014-Oct-24 08:18N 66°28' E 012°59'44 9.0
2014-Oct-24 03:26N 67°06' E 013°57'8 9.3
2014-Oct-24 02:33N 67°12' E 014°07'8 7.3
2014-Oct-24 01:32N 67°17' E 014°23'0 0.0
2014-Oct-24 00:32N 67°17' E 014°23'0 0.0
2014-Oct-23 23:32N 67°17' E 014°23'0 0.0
2014-Oct-23 22:32N 67°17' E 014°23'0 0.0
2014-Oct-23 21:32N 67°17' E 014°23'0 0.0
2014-Oct-23 20:32N 67°17' E 014°23'0 0.0
2014-Oct-23 19:32N 67°17' E 014°23'0 0.0
2014-Oct-23 18:26N 67°17' E 014°23'0 0.0
2014-Oct-23 17:32N 67°17' E 014°23'0 0.0
2014-Oct-23 16:32N 67°17' E 014°23'0 0.0
2014-Oct-23 15:29N 67°17' E 014°23'0 0.0
2014-Oct-23 14:32N 67°17' E 014°23'7 7.7
2014-Oct-23 13:33N 67°24' E 014°30'9 9.2
2014-Oct-23 12:32N 67°33' E 014°31'  
Track history (hours):
 
Tides and Currents Weather Stations Pressure Air Temp Water Temp Dewpoint Dewpoint Depression Visibility Wind Speed Wind Dir Waves Ship Positions

Boa Tyr

Last reported at 2014-Oct-30 22:29 UTC. Time now 2014-Oct-31 04:51 UTC.
Position N 66°29' E 012°58'.

Length 33 m; draft 4.8 m.

Type: Tug. MMSI: 258395000.

Date/timePositionNaut miles runAvg speedWind from/ knotsBaromVisibWave heightAir tempDewpointWater temp
2014-Oct-30 22:29N 66°29' E 012°58'0 0.0
2014-Oct-30 18:25N 66°29' E 012°58'0 0.0
2014-Oct-30 17:31N 66°29' E 012°58'2 0.8
2014-Oct-30 14:33N 66°27' E 012°59'10 9.3
2014-Oct-30 13:32N 66°18' E 012°56'  
2014-Oct-24 09:19N 66°18' E 012°55'10 9.7
2014-Oct-24 08:18N 66°28' E 012°59'44 9.0
2014-Oct-24 03:26N 67°06' E 013°57'8 9.3
2014-Oct-24 02:33N 67°12' E 014°07'8 7.3
2014-Oct-24 01:32N 67°17' E 014°23'0 0.0
2014-Oct-24 00:32N 67°17' E 014°23'0 0.0
2014-Oct-23 23:32N 67°17' E 014°23'0 0.0
2014-Oct-23 22:32N 67°17' E 014°23'0 0.0
2014-Oct-23 21:32N 67°17' E 014°23'0 0.0
2014-Oct-23 20:32N 67°17' E 014°23'0 0.0
2014-Oct-23 19:32N 67°17' E 014°23'0 0.0
2014-Oct-23 18:26N 67°17' E 014°23'0 0.0
2014-Oct-23 17:32N 67°17' E 014°23'0 0.0
2014-Oct-23 16:32N 67°17' E 014°23'0 0.0
2014-Oct-23 15:29N 67°17' E 014°23'0 0.0
2014-Oct-23 14:32N 67°17' E 014°23'7 7.7
2014-Oct-23 13:33N 67°24' E 014°30'9 9.2
2014-Oct-23 12:32N 67°33' E 014°31'  

Dump ship's entire track history